Terminal Aerodrome Forecast
Issued by NWS Boston, MA

Home | Current Version | Previous Version | Text Only | Print | Product List | Glossary On
Versions: 1 2 3 4 5 6 7 8 9 10 11 12 13 14 15 16 17 18 19 20 21
000
FTUS41 KBOX 220905 AAA
TAFBDL
TAF AMD
KBDL 220905Z 2209/2312 18004KT P6SM OVC070
     FM221300 19005KT P6SM BKN060
     FM222200 20004KT P6SM SCT060
     FM230800 00000KT 4SM BR BKN012=

USA.gov is the U.S. government's official web portal to all federal, state and local government web resources and services.